createdAt,value
2023-08-11T00:01:29.358Z,14.60
2023-08-11T00:03:56.286Z,14.60
2023-08-11T00:06:23.056Z,14.60
2023-08-11T00:08:49.700Z,14.60
2023-08-11T00:11:16.338Z,14.60
2023-08-11T00:13:42.983Z,14.50
2023-08-11T00:16:09.667Z,14.40
2023-08-11T00:18:36.591Z,14.40
2023-08-11T00:21:03.340Z,14.30
2023-08-11T00:23:30.329Z,14.30
2023-08-11T00:25:57.133Z,14.30
2023-08-11T00:28:23.870Z,14.40
2023-08-11T00:30:50.897Z,14.40
2023-08-11T00:33:17.774Z,14.40
2023-08-11T00:35:44.379Z,14.30
2023-08-11T00:38:11.397Z,14.30
2023-08-11T00:40:38.233Z,14.10
2023-08-11T00:43:05.021Z,14.00
2023-08-11T00:45:32.134Z,13.90
2023-08-11T00:47:58.955Z,13.90
2023-08-11T00:50:25.822Z,13.90
2023-08-11T00:52:52.690Z,13.90
2023-08-11T00:55:19.503Z,13.90
2023-08-11T00:57:46.570Z,13.90
2023-08-11T01:00:14.371Z,13.90
2023-08-11T01:02:42.214Z,13.90
2023-08-11T01:05:13.968Z,13.90
2023-08-11T01:07:51.008Z,13.90
2023-08-11T01:10:53.870Z,13.90
2023-08-11T01:13:21.424Z,13.90
2023-08-11T01:15:58.868Z,13.80
2023-08-11T01:18:27.066Z,13.80
2023-08-11T01:21:07.148Z,13.80
2023-08-11T01:23:34.226Z,13.80
2023-08-11T01:26:01.692Z,13.70
2023-08-11T01:28:28.676Z,13.60
2023-08-11T01:30:55.391Z,13.70
2023-08-11T01:33:22.113Z,13.70
2023-08-11T01:35:48.770Z,13.70
2023-08-11T01:38:15.393Z,13.60
2023-08-11T01:40:42.056Z,13.60
2023-08-11T01:43:12.031Z,13.70
2023-08-11T01:45:39.269Z,13.60
2023-08-11T01:48:06.795Z,13.60
2023-08-11T01:50:34.390Z,13.50
2023-08-11T01:53:01.305Z,13.50
2023-08-11T01:55:28.099Z,13.50
2023-08-11T01:57:59.013Z,13.50
2023-08-11T02:00:27.453Z,13.40
2023-08-11T02:02:54.175Z,13.30
2023-08-11T02:05:21.085Z,13.20
2023-08-11T02:07:47.836Z,13.20
2023-08-11T02:10:14.491Z,13.20
2023-08-11T02:12:41.851Z,13.20
2023-08-11T02:15:09.200Z,13.30
2023-08-11T02:17:36.466Z,13.30
2023-08-11T02:20:03.306Z,13.30
2023-08-11T02:22:29.944Z,13.20
2023-08-11T02:24:56.614Z,13.10
2023-08-11T02:27:23.236Z,13.00
2023-08-11T02:29:49.924Z,12.90
2023-08-11T02:32:16.599Z,13.00
2023-08-11T02:34:43.264Z,13.00
2023-08-11T02:37:10.160Z,13.00
2023-08-11T02:39:38.912Z,13.00
2023-08-11T02:42:07.252Z,13.00
2023-08-11T02:44:34.255Z,13.00
2023-08-11T02:47:00.868Z,13.00
2023-08-11T02:49:27.496Z,13.00
2023-08-11T02:51:54.103Z,13.00
2023-08-11T02:54:20.709Z,12.90
2023-08-11T02:56:48.323Z,12.90
2023-08-11T02:59:15.001Z,13.00
2023-08-11T03:01:41.670Z,12.80
2023-08-11T03:04:08.360Z,12.70
2023-08-11T03:06:35.055Z,12.70
2023-08-11T03:09:01.803Z,12.70
2023-08-11T03:11:28.471Z,12.70
2023-08-11T03:13:55.137Z,12.70
2023-08-11T03:16:21.770Z,12.70
2023-08-11T03:18:48.372Z,12.70
2023-08-11T03:21:20.053Z,12.80
2023-08-11T03:23:47.345Z,12.80
2023-08-11T03:26:14.337Z,12.80
2023-08-11T03:28:41.036Z,12.80
2023-08-11T03:31:07.744Z,12.90
2023-08-11T03:33:34.515Z,12.80
2023-08-11T03:36:01.284Z,12.80
2023-08-11T03:38:27.912Z,12.70
2023-08-11T03:40:54.549Z,12.80
2023-08-11T03:43:21.223Z,12.80
2023-08-11T03:45:47.855Z,12.70
2023-08-11T03:48:14.640Z,12.60
2023-08-11T03:50:41.259Z,12.60
2023-08-11T03:53:07.906Z,12.60
2023-08-11T03:55:34.501Z,12.50
2023-08-11T03:58:01.139Z,12.50
2023-08-11T04:00:27.831Z,12.40
2023-08-11T04:02:54.547Z,12.50
2023-08-11T04:05:21.288Z,12.50
2023-08-11T04:07:47.927Z,12.50
2023-08-11T04:10:14.593Z,12.60
2023-08-11T04:12:41.254Z,12.40
2023-08-11T04:15:08.175Z,12.50
2023-08-11T04:17:34.885Z,12.50
2023-08-11T04:20:02.183Z,12.50
2023-08-11T04:22:38.058Z,12.50
2023-08-11T04:25:06.253Z,12.60
2023-08-11T04:27:32.882Z,12.60
2023-08-11T04:29:59.556Z,12.60
2023-08-11T04:32:26.189Z,12.60
2023-08-11T04:34:52.785Z,12.60
2023-08-11T04:37:19.565Z,12.60
2023-08-11T04:39:46.217Z,12.70
2023-08-11T04:42:13.245Z,12.60
2023-08-11T04:44:40.091Z,12.60
2023-08-11T04:47:06.798Z,12.60
2023-08-11T04:49:33.513Z,12.60
2023-08-11T04:52:00.666Z,12.50
2023-08-11T04:54:28.004Z,12.50
2023-08-11T04:56:54.674Z,12.60
2023-08-11T04:59:21.481Z,12.70
2023-08-11T05:01:48.166Z,12.80
2023-08-11T05:04:14.798Z,12.90
2023-08-11T05:06:41.414Z,12.90
2023-08-11T05:09:08.454Z,12.90
2023-08-11T05:11:35.096Z,12.90
2023-08-11T05:14:01.854Z,13.00
2023-08-11T05:16:28.722Z,13.00
2023-08-11T05:18:55.332Z,13.10
2023-08-11T05:21:21.957Z,13.10
2023-08-11T05:23:48.600Z,13.20
2023-08-11T05:26:15.208Z,13.30
2023-08-11T05:28:41.913Z,13.40
2023-08-11T05:31:08.577Z,13.50
2023-08-11T05:33:35.214Z,13.60
2023-08-11T05:36:01.966Z,13.80
2023-08-11T05:38:28.610Z,13.90
2023-08-11T05:40:55.222Z,14.10
2023-08-11T05:43:21.866Z,14.20
2023-08-11T05:45:48.544Z,14.40
2023-08-11T05:48:15.173Z,14.60
2023-08-11T05:50:45.040Z,14.80
2023-08-11T05:53:11.963Z,15.00
2023-08-11T05:55:39.165Z,15.10
2023-08-11T05:58:06.046Z,15.10
2023-08-11T06:00:32.729Z,15.20
2023-08-11T06:02:59.415Z,15.30
2023-08-11T06:05:26.051Z,15.50
2023-08-11T06:08:05.169Z,15.70
2023-08-11T06:10:33.422Z,15.80
2023-08-11T06:13:00.310Z,15.90
2023-08-11T06:15:27.066Z,16.00
2023-08-11T06:17:53.848Z,16.10
2023-08-11T06:20:30.633Z,16.30
2023-08-11T06:23:06.016Z,16.40
2023-08-11T06:25:32.669Z,16.60
2023-08-11T06:27:59.289Z,16.70
2023-08-11T06:30:25.989Z,16.90
2023-08-11T06:32:52.626Z,17.00
2023-08-11T06:35:19.325Z,17.20
2023-08-11T06:37:45.996Z,17.20
2023-08-11T06:40:12.724Z,17.30
2023-08-11T06:42:39.653Z,17.50
2023-08-11T06:45:07.289Z,17.70
2023-08-11T06:47:37.314Z,17.80
2023-08-11T06:50:04.228Z,18.00
2023-08-11T06:52:30.852Z,18.10
2023-08-11T06:54:57.546Z,18.20
2023-08-11T06:57:24.512Z,18.30
2023-08-11T06:59:51.166Z,18.40
2023-08-11T07:02:17.851Z,18.60
2023-08-11T07:04:44.505Z,18.80
2023-08-11T07:07:11.351Z,18.90
2023-08-11T07:09:38.167Z,19.00
2023-08-11T07:12:05.190Z,19.00
2023-08-11T07:14:31.795Z,19.10
2023-08-11T07:16:58.830Z,19.20
2023-08-11T07:19:25.582Z,19.30
2023-08-11T07:21:52.213Z,19.30
2023-08-11T07:24:18.850Z,19.40
2023-08-11T07:26:45.526Z,19.40
2023-08-11T07:29:12.161Z,19.50
2023-08-11T07:31:38.796Z,19.60
2023-08-11T07:34:05.394Z,19.80
2023-08-11T07:36:32.126Z,19.90
2023-08-11T07:39:12.826Z,20.00
2023-08-11T07:41:45.379Z,20.20
2023-08-11T07:44:12.051Z,20.20
2023-08-11T07:46:38.685Z,20.40
2023-08-11T07:49:05.495Z,20.50
2023-08-11T07:51:32.157Z,20.50
2023-08-11T07:53:58.852Z,20.70
2023-08-11T07:56:25.480Z,20.70
2023-08-11T07:58:52.120Z,20.70
2023-08-11T08:01:18.758Z,20.80
2023-08-11T08:03:45.589Z,20.90
2023-08-11T08:06:12.443Z,21.00
2023-08-11T08:08:39.045Z,21.00
2023-08-11T08:11:05.711Z,21.20
2023-08-11T08:13:32.657Z,21.40
2023-08-11T08:15:59.355Z,21.60
2023-08-11T08:18:26.022Z,21.70
2023-08-11T08:20:52.697Z,21.90
2023-08-11T08:23:19.375Z,22.00
2023-08-11T08:25:46.019Z,22.00
2023-08-11T08:28:13.600Z,22.20
2023-08-11T08:30:40.219Z,22.20
2023-08-11T08:33:06.906Z,22.50
2023-08-11T08:35:33.611Z,22.60
2023-08-11T08:38:00.229Z,22.60
2023-08-11T08:40:28.327Z,22.60
2023-08-11T08:42:55.080Z,22.70
2023-08-11T08:45:23.326Z,22.90
2023-08-11T08:47:51.306Z,22.90
2023-08-11T08:50:19.062Z,23.00
2023-08-11T08:52:46.334Z,23.00
2023-08-11T08:55:12.975Z,23.20
2023-08-11T08:57:40.267Z,23.30
2023-08-11T09:00:07.733Z,23.30
2023-08-11T09:02:34.751Z,23.40
2023-08-11T09:05:01.433Z,23.50
2023-08-11T09:07:28.057Z,23.50
2023-08-11T09:09:54.682Z,23.60
2023-08-11T09:12:21.343Z,23.70
2023-08-11T09:14:48.019Z,23.70
2023-08-11T09:17:14.758Z,23.80
2023-08-11T09:19:44.068Z,23.80
2023-08-11T09:22:11.438Z,23.90
2023-08-11T09:24:39.174Z,24.00
2023-08-11T09:27:06.177Z,24.00
2023-08-11T09:29:35.996Z,24.30
2023-08-11T09:32:04.622Z,24.30
2023-08-11T09:34:31.362Z,24.40
2023-08-11T09:36:58.278Z,24.50
2023-08-11T09:39:28.629Z,24.60
2023-08-11T09:41:56.037Z,24.60
2023-08-11T09:44:22.781Z,24.70
2023-08-11T09:46:50.941Z,24.80
2023-08-11T09:49:17.817Z,24.80
2023-08-11T09:51:46.386Z,25.00
2023-08-11T09:54:14.321Z,24.90
2023-08-11T09:56:43.254Z,25.10
2023-08-11T09:59:15.920Z,25.10
2023-08-11T10:01:44.113Z,25.20
2023-08-11T10:04:38.332Z,25.10
2023-08-11T10:07:11.284Z,25.20
2023-08-11T10:09:38.455Z,25.10
2023-08-11T10:12:07.440Z,25.20
2023-08-11T10:14:37.475Z,25.40
2023-08-11T10:17:04.632Z,25.50
2023-08-11T10:19:31.605Z,25.50
2023-08-11T10:22:00.680Z,25.60
2023-08-11T10:24:27.587Z,25.70
2023-08-11T10:26:54.578Z,25.80
2023-08-11T10:29:22.730Z,25.90
2023-08-11T10:31:58.348Z,25.90
2023-08-11T10:34:26.297Z,25.90
2023-08-11T10:36:57.635Z,26.10
2023-08-11T10:39:24.901Z,26.20
2023-08-11T10:41:52.176Z,26.10
2023-08-11T10:44:19.964Z,26.30
2023-08-11T10:46:47.901Z,26.50
2023-08-11T10:49:14.471Z,26.50
2023-08-11T10:51:42.320Z,26.50
2023-08-11T10:54:09.846Z,26.60
2023-08-11T10:56:39.322Z,26.60
2023-08-11T10:59:13.110Z,26.70
2023-08-11T11:01:41.619Z,26.80
2023-08-11T11:04:10.047Z,26.90
2023-08-11T11:06:37.215Z,26.80
2023-08-11T11:09:04.350Z,26.80
2023-08-11T11:11:31.784Z,26.90
2023-08-11T11:13:58.554Z,27.00
2023-08-11T11:16:25.452Z,27.10
2023-08-11T11:18:52.658Z,27.10
2023-08-11T11:21:19.822Z,27.20
2023-08-11T11:23:51.626Z,27.30
2023-08-11T11:26:27.146Z,27.50
2023-08-11T11:28:56.346Z,27.60
2023-08-11T11:31:24.283Z,27.60
2023-08-11T11:33:51.455Z,27.60
2023-08-11T11:36:20.499Z,27.60
2023-08-11T11:38:48.013Z,27.60
2023-08-11T11:41:17.009Z,27.70
2023-08-11T11:43:45.208Z,27.90
2023-08-11T11:46:12.556Z,27.90
2023-08-11T11:48:39.407Z,27.90
2023-08-11T11:51:06.394Z,27.80
2023-08-11T11:53:33.003Z,27.80
2023-08-11T11:55:59.645Z,27.90
2023-08-11T11:58:26.336Z,28.00
2023-08-11T12:00:52.954Z,28.10
2023-08-11T12:03:19.602Z,28.10
2023-08-11T12:05:46.294Z,28.20
2023-08-11T12:08:24.887Z,28.20
2023-08-11T12:10:51.639Z,28.10
2023-08-11T12:13:18.595Z,28.20
2023-08-11T12:15:48.512Z,28.20
2023-08-11T12:18:15.603Z,28.40
2023-08-11T12:20:42.408Z,28.50
2023-08-11T12:23:09.059Z,28.50
2023-08-11T12:25:35.685Z,28.50
2023-08-11T12:28:02.279Z,28.50
2023-08-11T12:30:29.593Z,28.60
2023-08-11T12:32:56.401Z,28.70
2023-08-11T12:35:23.152Z,28.80
2023-08-11T12:37:49.832Z,28.80
2023-08-11T12:40:16.475Z,28.80
2023-08-11T12:42:43.055Z,28.70
2023-08-11T12:45:10.134Z,28.70
2023-08-11T12:47:36.763Z,29.00
2023-08-11T12:50:03.620Z,29.00
2023-08-11T12:52:30.368Z,29.30
2023-08-11T12:54:56.974Z,29.30
2023-08-11T12:57:23.626Z,29.20
2023-08-11T12:59:50.280Z,29.00
2023-08-11T13:02:16.953Z,28.90
2023-08-11T13:04:44.878Z,29.00
2023-08-11T13:07:11.516Z,29.30
2023-08-11T13:09:38.106Z,29.30
2023-08-11T13:12:04.881Z,29.30
2023-08-11T13:14:31.525Z,29.40
2023-08-11T13:16:58.484Z,29.30
2023-08-11T13:19:25.124Z,29.20
2023-08-11T13:21:51.753Z,29.40
2023-08-11T13:24:21.044Z,29.30
2023-08-11T13:26:48.062Z,29.10
2023-08-11T13:29:14.853Z,29.10
2023-08-11T13:31:41.499Z,29.30
2023-08-11T13:34:08.195Z,29.50
2023-08-11T13:36:34.828Z,29.30
2023-08-11T13:39:01.417Z,29.50
2023-08-11T13:41:28.007Z,29.50
2023-08-11T13:43:54.703Z,29.40
2023-08-11T13:46:21.400Z,29.30
2023-08-11T13:48:48.098Z,29.30
2023-08-11T13:51:14.736Z,29.50
2023-08-11T13:53:41.323Z,29.40
2023-08-11T13:56:08.307Z,29.40
2023-08-11T13:58:34.948Z,29.40
2023-08-11T14:01:01.601Z,29.40
2023-08-11T14:03:28.281Z,29.40
2023-08-11T14:05:55.084Z,29.30
2023-08-11T14:08:21.726Z,29.20
2023-08-11T14:10:48.538Z,29.00
2023-08-11T14:13:15.370Z,29.00
2023-08-11T14:15:42.310Z,28.80
2023-08-11T14:18:08.939Z,28.70
2023-08-11T14:20:35.660Z,28.70
2023-08-11T14:23:02.270Z,28.60
2023-08-11T14:25:28.936Z,28.60
2023-08-11T14:27:55.700Z,28.60
2023-08-11T14:30:22.463Z,28.60
2023-08-11T14:32:49.122Z,28.60
2023-08-11T14:35:15.897Z,28.60
2023-08-11T14:37:42.493Z,28.70
2023-08-11T14:40:09.508Z,28.70
2023-08-11T14:42:36.142Z,28.60
2023-08-11T14:45:02.892Z,28.50
2023-08-11T14:47:29.526Z,28.60
2023-08-11T14:49:56.221Z,28.70
2023-08-11T14:52:22.830Z,28.70
2023-08-11T14:54:49.450Z,28.60
2023-08-11T14:57:16.081Z,28.40
2023-08-11T14:59:42.745Z,28.30
2023-08-11T15:02:09.755Z,28.30
2023-08-11T15:04:36.732Z,28.30
2023-08-11T15:07:03.392Z,28.30
2023-08-11T15:09:30.115Z,28.30
2023-08-11T15:11:56.761Z,28.30
2023-08-11T15:14:23.425Z,28.30
2023-08-11T15:16:50.184Z,28.20
2023-08-11T15:19:17.009Z,28.20
2023-08-11T15:21:43.610Z,28.10
2023-08-11T15:24:10.344Z,28.20
2023-08-11T15:26:38.415Z,28.10
2023-08-11T15:29:05.253Z,28.10
2023-08-11T15:31:32.109Z,28.20
2023-08-11T15:33:58.737Z,28.20
2023-08-11T15:36:25.342Z,28.10
2023-08-11T15:38:52.276Z,28.10
2023-08-11T15:41:19.044Z,28.20
2023-08-11T15:43:45.691Z,28.20
2023-08-11T15:46:12.363Z,28.20
2023-08-11T15:48:39.049Z,28.30
2023-08-11T15:51:05.800Z,28.30
2023-08-11T15:53:32.395Z,28.30
2023-08-11T15:56:00.130Z,28.40
2023-08-11T15:58:26.725Z,28.40
2023-08-11T16:00:53.363Z,28.50
2023-08-11T16:03:20.248Z,28.40
2023-08-11T16:05:47.212Z,28.50
2023-08-11T16:08:14.015Z,28.50
2023-08-11T16:10:40.795Z,28.40
2023-08-11T16:13:10.392Z,28.40
2023-08-11T16:15:37.541Z,28.30
2023-08-11T16:18:08.503Z,28.30
2023-08-11T16:20:35.340Z,28.20
2023-08-11T16:23:02.097Z,28.10
2023-08-11T16:25:28.753Z,28.10
2023-08-11T16:27:55.394Z,28.10
2023-08-11T16:30:22.019Z,28.00
2023-08-11T16:32:48.689Z,27.90
2023-08-11T16:35:15.389Z,27.80
2023-08-11T16:37:42.104Z,27.80
2023-08-11T16:40:09.369Z,27.70
2023-08-11T16:42:36.433Z,27.70
2023-08-11T16:45:03.367Z,27.60
2023-08-11T16:47:30.049Z,27.50
2023-08-11T16:49:56.695Z,27.40
2023-08-11T16:52:23.428Z,27.40
2023-08-11T16:54:50.059Z,27.40
2023-08-11T16:57:16.787Z,27.30
2023-08-11T16:59:43.394Z,27.30
2023-08-11T17:02:10.225Z,27.20
2023-08-11T17:04:37.074Z,27.10
2023-08-11T17:07:03.720Z,27.00
2023-08-11T17:09:30.364Z,26.90
2023-08-11T17:11:57.005Z,26.90
2023-08-11T17:14:23.700Z,26.90
2023-08-11T17:16:50.337Z,26.80
2023-08-11T17:19:17.017Z,26.80
2023-08-11T17:21:43.658Z,26.80
2023-08-11T17:24:10.428Z,26.70
2023-08-11T17:26:38.662Z,26.70
2023-08-11T17:29:05.390Z,26.60
2023-08-11T17:31:32.058Z,26.60
2023-08-11T17:33:58.694Z,26.50
2023-08-11T17:36:25.399Z,26.50
2023-08-11T17:38:55.380Z,26.40
2023-08-11T17:41:22.147Z,26.40
2023-08-11T17:43:48.752Z,26.40
2023-08-11T17:46:15.528Z,26.30
2023-08-11T17:48:42.276Z,26.20
2023-08-11T17:51:09.409Z,26.20
2023-08-11T17:53:36.058Z,26.10
2023-08-11T17:56:02.684Z,26.10
2023-08-11T17:58:29.288Z,26.00
2023-08-11T18:00:58.754Z,26.00
2023-08-11T18:03:25.660Z,25.90
2023-08-11T18:05:52.272Z,25.80
2023-08-11T18:08:18.902Z,25.70
2023-08-11T18:10:45.545Z,25.70
2023-08-11T18:13:12.188Z,25.60
2023-08-11T18:15:38.847Z,25.60
2023-08-11T18:18:05.646Z,25.50
2023-08-11T18:20:33.379Z,25.40
2023-08-11T18:23:00.008Z,25.30
2023-08-11T18:25:26.700Z,25.20
2023-08-11T18:27:54.756Z,25.10
2023-08-11T18:30:21.593Z,25.00
2023-08-11T18:32:48.257Z,24.90
2023-08-11T18:35:14.971Z,24.80
2023-08-11T18:37:41.701Z,24.70
2023-08-11T18:40:09.156Z,24.50
2023-08-11T18:42:35.774Z,24.30
2023-08-11T18:45:02.416Z,24.20
2023-08-11T18:47:31.767Z,24.10
2023-08-11T18:49:58.869Z,24.00
2023-08-11T18:52:25.517Z,23.90
2023-08-11T18:54:52.211Z,23.70
2023-08-11T18:57:18.859Z,23.60
2023-08-11T18:59:45.495Z,23.60
2023-08-11T19:02:12.318Z,23.50
2023-08-11T19:04:39.205Z,23.40
2023-08-11T19:07:05.869Z,23.40
2023-08-11T19:09:32.565Z,23.30
2023-08-11T19:11:59.704Z,23.20
2023-08-11T19:14:26.501Z,23.20
2023-08-11T19:16:53.116Z,23.10
2023-08-11T19:19:19.782Z,23.10
2023-08-11T19:21:46.436Z,23.00
2023-08-11T19:24:13.282Z,22.90
2023-08-11T19:26:40.329Z,22.90
2023-08-11T19:29:06.948Z,22.80
2023-08-11T19:31:33.828Z,22.80
2023-08-11T19:34:03.410Z,22.70
2023-08-11T19:36:30.128Z,22.70
2023-08-11T19:38:56.804Z,22.60
2023-08-11T19:41:23.463Z,22.60
2023-08-11T19:43:50.072Z,22.50
2023-08-11T19:46:16.757Z,22.40
2023-08-11T19:48:43.443Z,22.40
2023-08-11T19:51:10.105Z,22.40
2023-08-11T19:53:36.720Z,22.30
2023-08-11T19:56:03.480Z,22.30
2023-08-11T19:58:30.150Z,22.30
2023-08-11T20:00:57.375Z,22.20
2023-08-11T20:03:24.112Z,22.20
2023-08-11T20:05:50.845Z,22.20
2023-08-11T20:08:17.566Z,22.20
2023-08-11T20:10:45.452Z,22.20
2023-08-11T20:13:12.472Z,22.20
2023-08-11T20:15:39.415Z,22.10
2023-08-11T20:18:06.066Z,22.10
2023-08-11T20:20:32.936Z,22.10
2023-08-11T20:22:59.539Z,22.10
2023-08-11T20:25:26.206Z,22.00
2023-08-11T20:27:52.850Z,22.00
2023-08-11T20:30:19.522Z,21.90
2023-08-11T20:32:46.168Z,21.90
2023-08-11T20:35:12.887Z,21.80
2023-08-11T20:37:39.614Z,21.70
2023-08-11T20:40:07.094Z,21.70
2023-08-11T20:42:34.873Z,21.60
2023-08-11T20:45:01.517Z,21.50
2023-08-11T20:47:28.184Z,21.50
2023-08-11T20:49:54.862Z,21.50
2023-08-11T20:52:21.462Z,21.40
2023-08-11T20:54:48.057Z,21.30
2023-08-11T20:57:15.297Z,21.30
2023-08-11T20:59:42.020Z,21.20
2023-08-11T21:02:10.089Z,21.30
2023-08-11T21:04:36.911Z,21.10
2023-08-11T21:07:03.550Z,21.10
2023-08-11T21:09:30.178Z,21.10
2023-08-11T21:11:56.813Z,21.00
2023-08-11T21:14:23.404Z,21.00
2023-08-11T21:16:50.132Z,20.90
2023-08-11T21:19:16.811Z,20.90
2023-08-11T21:21:43.428Z,20.90
2023-08-11T21:24:10.067Z,20.80
2023-08-11T21:26:36.691Z,20.70
2023-08-11T21:29:03.652Z,20.60
2023-08-11T21:31:30.305Z,20.70
2023-08-11T21:34:06.353Z,20.70
2023-08-11T21:36:34.403Z,20.70
2023-08-11T21:39:02.034Z,20.70
2023-08-11T21:41:28.963Z,20.70
2023-08-11T21:43:55.598Z,20.60
2023-08-11T21:46:22.386Z,20.60
2023-08-11T21:48:49.176Z,20.60
2023-08-11T21:51:16.618Z,20.50
2023-08-11T21:53:43.420Z,20.50
2023-08-11T21:56:10.136Z,20.50
2023-08-11T21:58:36.959Z,20.40
2023-08-11T22:01:03.683Z,20.50
2023-08-11T22:03:30.569Z,20.50
2023-08-11T22:05:57.185Z,20.40
2023-08-11T22:08:23.807Z,20.40
2023-08-11T22:10:50.559Z,20.40
2023-08-11T22:13:17.259Z,20.40
2023-08-11T22:15:43.975Z,20.30
2023-08-11T22:18:10.665Z,20.30
2023-08-11T22:20:37.373Z,20.30
2023-08-11T22:23:04.210Z,20.30
2023-08-11T22:25:30.882Z,20.30
2023-08-11T22:27:57.594Z,20.30
2023-08-11T22:30:24.212Z,20.20
2023-08-11T22:32:50.885Z,20.10
2023-08-11T22:35:17.648Z,20.10
2023-08-11T22:37:44.254Z,20.10
2023-08-11T22:40:11.215Z,20.10
2023-08-11T22:42:37.839Z,20.10
2023-08-11T22:45:04.843Z,20.10
2023-08-11T22:47:31.531Z,20.10
2023-08-11T22:49:58.151Z,20.10
2023-08-11T22:52:24.855Z,20.10
2023-08-11T22:54:51.464Z,20.10
2023-08-11T22:57:18.071Z,20.10
2023-08-11T22:59:44.802Z,20.10
2023-08-11T23:02:11.578Z,20.00
2023-08-11T23:04:38.410Z,20.00
2023-08-11T23:07:05.147Z,20.00
2023-08-11T23:09:32.055Z,19.90
2023-08-11T23:11:58.728Z,19.90
2023-08-11T23:14:25.364Z,19.90
2023-08-11T23:16:51.992Z,19.80
2023-08-11T23:19:18.639Z,19.80
2023-08-11T23:21:45.263Z,19.80
2023-08-11T23:24:11.910Z,19.80
2023-08-11T23:26:38.544Z,19.80
2023-08-11T23:29:05.238Z,19.80
2023-08-11T23:31:31.923Z,19.70
2023-08-11T23:33:58.570Z,19.70
2023-08-11T23:36:25.224Z,19.60
2023-08-11T23:38:51.910Z,19.60
2023-08-11T23:41:18.548Z,19.60
2023-08-11T23:43:45.163Z,19.60
2023-08-11T23:46:11.880Z,19.60
2023-08-11T23:48:38.566Z,19.70
2023-08-11T23:51:05.163Z,19.70
2023-08-11T23:53:31.796Z,19.70
2023-08-11T23:55:58.496Z,19.70
2023-08-11T23:58:25.312Z,19.70
